createdAt,value
2019-03-11T00:01:35.142Z,3.80
2019-03-11T00:04:03.102Z,3.43
2019-03-11T00:06:31.107Z,3.10
2019-03-11T00:08:58.972Z,3.67
2019-03-11T00:11:27.019Z,3.67
2019-03-11T00:13:55.326Z,3.40
2019-03-11T00:16:23.162Z,3.50
2019-03-11T00:18:51.611Z,3.30
2019-03-11T00:21:19.932Z,3.83
2019-03-11T00:23:47.915Z,3.53
2019-03-11T00:26:15.793Z,3.07
2019-03-11T00:28:43.638Z,3.40
2019-03-11T00:31:11.807Z,3.67
2019-03-11T00:33:40.153Z,4.03
2019-03-11T00:36:08.363Z,3.60
2019-03-11T00:38:36.223Z,3.90
2019-03-11T00:41:04.552Z,4.13
2019-03-11T00:43:32.757Z,3.53
2019-03-11T00:46:01.068Z,3.70
2019-03-11T00:48:29.214Z,3.90
2019-03-11T00:50:57.725Z,3.67
2019-03-11T00:53:26.167Z,3.50
2019-03-11T00:55:54.461Z,3.20
2019-03-11T00:58:22.562Z,3.63
2019-03-11T01:00:50.815Z,3.30
2019-03-11T01:03:18.671Z,3.30
2019-03-11T01:05:46.726Z,3.17
2019-03-11T01:08:14.814Z,3.60
2019-03-11T01:10:43.484Z,3.57
2019-03-11T01:13:11.439Z,3.50
2019-03-11T01:15:39.870Z,3.73
2019-03-11T01:18:08.309Z,3.23
2019-03-11T01:20:36.498Z,3.50
2019-03-11T01:23:23.784Z,3.50
2019-03-11T01:25:52.271Z,3.60
2019-03-11T01:28:20.640Z,3.20
2019-03-11T01:30:48.893Z,3.67
2019-03-11T01:33:16.887Z,3.60
2019-03-11T01:35:45.195Z,3.83
2019-03-11T01:38:13.526Z,3.53
2019-03-11T01:40:41.465Z,3.70
2019-03-11T01:43:09.374Z,3.67
2019-03-11T01:45:37.602Z,4.00
2019-03-11T01:48:05.650Z,3.13
2019-03-11T01:50:34.006Z,3.23
2019-03-11T01:53:03.432Z,3.73
2019-03-11T01:55:31.283Z,3.43
2019-03-11T01:57:59.410Z,3.53
2019-03-11T02:00:27.463Z,3.87
2019-03-11T02:02:55.468Z,2.97
2019-03-11T02:05:23.331Z,3.10
2019-03-11T02:07:51.640Z,3.60
2019-03-11T02:10:20.131Z,3.33
2019-03-11T02:12:48.298Z,3.50
2019-03-11T02:15:16.538Z,3.40
2019-03-11T02:17:44.818Z,3.23
2019-03-11T02:20:13.886Z,3.23
2019-03-11T02:22:41.826Z,3.50
2019-03-11T02:25:10.512Z,3.30
2019-03-11T02:27:38.607Z,3.33
2019-03-11T02:30:08.712Z,2.87
2019-03-11T02:32:36.735Z,3.20
2019-03-11T02:35:05.183Z,3.47
2019-03-11T02:37:33.160Z,3.67
2019-03-11T02:40:01.449Z,3.23
2019-03-11T02:42:29.580Z,3.50
2019-03-11T02:44:57.823Z,3.20
2019-03-11T02:47:26.250Z,3.47
2019-03-11T02:49:54.624Z,3.37
2019-03-11T02:52:23.022Z,3.17
2019-03-11T02:54:51.043Z,3.27
2019-03-11T02:57:18.989Z,3.47
2019-03-11T02:59:47.334Z,3.40
2019-03-11T03:02:37.081Z,3.50
2019-03-11T03:05:15.036Z,3.20
2019-03-11T03:07:43.405Z,3.37
2019-03-11T03:10:11.274Z,3.60
2019-03-11T03:12:39.130Z,3.23
2019-03-11T03:15:07.348Z,3.57
2019-03-11T03:17:35.599Z,3.30
2019-03-11T03:20:04.362Z,3.40
2019-03-11T03:22:32.769Z,3.13
2019-03-11T03:25:01.112Z,2.83
2019-03-11T03:27:29.429Z,3.17
2019-03-11T03:29:57.823Z,3.50
2019-03-11T03:32:25.772Z,3.37
2019-03-11T03:34:53.686Z,3.40
2019-03-11T03:37:21.928Z,3.40
2019-03-11T03:39:50.373Z,2.60
2019-03-11T03:42:18.612Z,3.23
2019-03-11T03:45:21.533Z,3.23
2019-03-11T03:47:50.065Z,3.30
2019-03-11T03:50:18.307Z,3.13
2019-03-11T03:52:46.126Z,3.00
2019-03-11T03:55:14.205Z,3.00
2019-03-11T03:57:42.467Z,3.57
2019-03-11T04:00:11.019Z,3.50
2019-03-11T04:02:39.314Z,3.80
2019-03-11T04:05:07.636Z,3.90
2019-03-11T04:07:35.606Z,3.17
2019-03-11T04:10:04.277Z,3.50
2019-03-11T04:12:32.166Z,3.50
2019-03-11T04:15:00.498Z,3.93
2019-03-11T04:17:28.432Z,4.00
2019-03-11T04:19:56.511Z,4.50
2019-03-11T04:22:24.568Z,4.23
2019-03-11T04:24:52.517Z,3.93
2019-03-11T04:27:20.531Z,3.77
2019-03-11T04:29:48.727Z,4.27
2019-03-11T04:32:16.615Z,4.03
2019-03-11T04:34:44.596Z,5.00
2019-03-11T04:37:12.545Z,4.50
2019-03-11T04:39:40.407Z,4.33
2019-03-11T04:42:08.675Z,4.40
2019-03-11T04:44:36.551Z,4.30
2019-03-11T04:47:04.846Z,4.93
2019-03-11T04:49:32.774Z,4.43
2019-03-11T04:52:00.631Z,4.40
2019-03-11T04:54:28.581Z,4.50
2019-03-11T04:56:56.487Z,4.20
2019-03-11T04:59:24.400Z,4.50
2019-03-11T05:01:52.318Z,3.90
2019-03-11T05:04:20.241Z,4.00
2019-03-11T05:06:48.162Z,3.97
2019-03-11T05:09:16.018Z,4.03
2019-03-11T05:11:43.974Z,3.53
2019-03-11T05:14:23.044Z,3.33
2019-03-11T05:16:51.027Z,3.47
2019-03-11T05:19:18.943Z,3.63
2019-03-11T05:21:46.862Z,3.97
2019-03-11T05:24:14.775Z,3.80
2019-03-11T05:26:42.791Z,3.53
2019-03-11T05:29:10.772Z,3.93
2019-03-11T05:31:38.761Z,4.00
2019-03-11T05:34:06.794Z,3.50
2019-03-11T05:36:34.714Z,3.97
2019-03-11T05:39:03.122Z,3.73
2019-03-11T05:41:31.228Z,3.23
2019-03-11T05:43:59.225Z,3.73
2019-03-11T05:46:27.100Z,3.73
2019-03-11T05:48:55.039Z,4.07
2019-03-11T05:51:31.111Z,4.07
2019-03-11T05:53:52.668Z,4.13
2019-03-11T05:56:20.599Z,4.00
2019-03-11T05:58:48.431Z,4.33
2019-03-11T06:01:16.526Z,4.33
2019-03-11T06:03:44.563Z,4.07
2019-03-11T06:06:12.594Z,4.13
2019-03-11T06:08:40.581Z,3.70
2019-03-11T06:11:15.184Z,3.50
2019-03-11T06:13:43.113Z,3.77
2019-03-11T06:16:11.015Z,3.63
2019-03-11T06:18:44.825Z,3.43
2019-03-11T06:21:15.785Z,4.30
2019-03-11T06:23:43.658Z,4.10
2019-03-11T06:26:11.631Z,4.37
2019-03-11T06:28:39.610Z,5.03
2019-03-11T06:31:07.493Z,5.90
2019-03-11T06:33:35.466Z,7.50
2019-03-11T06:36:03.559Z,7.63
2019-03-11T06:38:31.465Z,7.50
2019-03-11T06:40:59.463Z,7.60
2019-03-11T06:43:27.406Z,7.40
2019-03-11T06:45:55.359Z,7.67
2019-03-11T06:48:23.343Z,7.30
2019-03-11T06:50:51.202Z,8.43
2019-03-11T06:53:19.119Z,9.83
2019-03-11T06:55:47.331Z,11.20
2019-03-11T06:58:15.169Z,11.43
2019-03-11T07:00:43.231Z,13.87
2019-03-11T07:03:11.087Z,15.80
2019-03-11T07:05:39.043Z,14.87
2019-03-11T07:08:06.975Z,14.33
2019-03-11T07:10:34.913Z,14.27
2019-03-11T07:13:03.915Z,13.93
2019-03-11T07:15:31.992Z,14.57
2019-03-11T07:18:00.007Z,12.50
2019-03-11T07:20:28.115Z,10.30
2019-03-11T07:22:56.103Z,9.17
2019-03-11T07:25:23.979Z,8.57
2019-03-11T07:27:52.039Z,10.90
2019-03-11T07:30:20.735Z,13.13
2019-03-11T07:32:48.819Z,13.47
2019-03-11T07:35:16.838Z,14.70
2019-03-11T07:37:44.759Z,15.37
2019-03-11T07:40:13.011Z,14.53
2019-03-11T07:42:41.007Z,13.67
2019-03-11T07:45:08.969Z,12.47
2019-03-11T07:47:36.851Z,11.97
2019-03-11T07:50:05.164Z,10.13
2019-03-11T07:52:33.098Z,9.80
2019-03-11T07:55:01.076Z,10.10
2019-03-11T07:57:29.083Z,9.23
2019-03-11T07:59:56.960Z,7.63
2019-03-11T08:02:24.851Z,9.00
2019-03-11T08:04:52.858Z,8.50
2019-03-11T08:07:20.807Z,8.10
2019-03-11T08:09:48.761Z,7.97
2019-03-11T08:12:16.754Z,8.77
2019-03-11T08:14:57.750Z,11.63
2019-03-11T08:17:25.766Z,14.13
2019-03-11T08:19:53.650Z,14.83
2019-03-11T08:22:21.622Z,13.90
2019-03-11T08:24:49.563Z,10.37
2019-03-11T08:27:17.549Z,7.83
2019-03-11T08:29:45.435Z,6.67
2019-03-11T08:32:13.382Z,6.20
2019-03-11T08:34:41.558Z,5.87
2019-03-11T08:37:09.455Z,5.93
2019-03-11T08:39:37.406Z,6.13
2019-03-11T08:42:05.449Z,5.17
2019-03-11T08:44:33.510Z,6.37
2019-03-11T08:47:01.544Z,6.23
2019-03-11T08:49:29.526Z,5.27
2019-03-11T08:51:57.410Z,5.40
2019-03-11T08:54:25.388Z,5.93
2019-03-11T08:56:53.343Z,5.70
2019-03-11T08:59:21.281Z,6.07
2019-03-11T09:01:49.210Z,5.93
2019-03-11T09:04:17.058Z,5.73
2019-03-11T09:06:44.911Z,6.13
2019-03-11T09:09:13.039Z,6.13
2019-03-11T09:11:40.932Z,6.07
2019-03-11T09:14:12.249Z,5.60
2019-03-11T09:16:40.411Z,7.00
2019-03-11T09:19:08.498Z,6.00
2019-03-11T09:21:36.422Z,6.93
2019-03-11T09:24:04.624Z,6.70
2019-03-11T09:26:32.594Z,6.00
2019-03-11T09:29:00.542Z,6.57
2019-03-11T09:31:28.515Z,7.17
2019-03-11T09:33:56.907Z,6.23
2019-03-11T09:36:24.899Z,6.17
2019-03-11T09:38:52.768Z,6.13
2019-03-11T09:41:20.787Z,6.40
2019-03-11T09:43:48.626Z,6.93
2019-03-11T09:46:16.490Z,6.67
2019-03-11T09:48:44.973Z,6.20
2019-03-11T09:51:13.584Z,6.97
2019-03-11T09:53:41.470Z,6.50
2019-03-11T09:56:09.803Z,6.33
2019-03-11T09:58:37.806Z,7.23
2019-03-11T10:01:05.691Z,7.57
2019-03-11T10:03:33.586Z,7.03
2019-03-11T10:06:01.794Z,6.60
2019-03-11T10:08:29.747Z,6.70
2019-03-11T10:10:57.670Z,6.20
2019-03-11T10:13:27.531Z,6.17
2019-03-11T10:15:55.187Z,6.43
2019-03-11T10:18:23.123Z,5.80
2019-03-11T10:20:50.958Z,6.33
2019-03-11T10:23:18.780Z,6.93
2019-03-11T10:25:46.756Z,6.23
2019-03-11T10:28:14.931Z,6.90
2019-03-11T10:30:42.934Z,6.77
2019-03-11T10:33:11.282Z,6.47
2019-03-11T10:35:39.218Z,6.03
2019-03-11T10:38:07.079Z,6.90
2019-03-11T10:40:35.024Z,6.00
2019-03-11T10:43:04.360Z,5.67
2019-03-11T10:45:32.486Z,5.67
2019-03-11T10:48:00.498Z,5.50
2019-03-11T10:50:28.668Z,5.27
2019-03-11T10:52:56.739Z,6.00
2019-03-11T10:55:24.680Z,5.27
2019-03-11T10:57:52.717Z,5.50
2019-03-11T11:00:22.755Z,4.93
2019-03-11T11:02:51.083Z,4.13
2019-03-11T11:05:19.140Z,5.53
2019-03-11T11:07:47.547Z,6.03
2019-03-11T11:10:15.697Z,5.67
2019-03-11T11:12:43.870Z,5.90
2019-03-11T11:15:35.389Z,6.47
2019-03-11T11:18:05.299Z,5.33
2019-03-11T11:20:33.407Z,4.80
2019-03-11T11:23:03.026Z,5.00
2019-03-11T11:25:31.049Z,5.60
2019-03-11T11:27:59.207Z,5.80
2019-03-11T11:30:27.591Z,4.90
2019-03-11T11:32:56.149Z,5.90
2019-03-11T11:35:24.351Z,5.70
2019-03-11T11:37:52.255Z,5.12
2019-03-11T11:40:22.091Z,5.67
2019-03-11T11:42:50.278Z,5.27
2019-03-11T11:45:19.285Z,5.90
2019-03-11T11:47:47.590Z,5.57
2019-03-11T11:50:16.885Z,5.93
2019-03-11T11:52:44.691Z,6.80
2019-03-11T11:55:13.110Z,6.37
2019-03-11T11:57:41.392Z,6.50
2019-03-11T12:00:12.902Z,6.53
2019-03-11T12:02:40.919Z,5.33
2019-03-11T12:05:10.211Z,5.40
2019-03-11T12:07:38.590Z,5.70
2019-03-11T12:10:07.206Z,5.33
2019-03-11T12:12:35.313Z,4.93
2019-03-11T12:15:44.914Z,4.60
2019-03-11T12:18:11.340Z,4.20
2019-03-11T12:20:39.261Z,4.40
2019-03-11T12:23:07.217Z,4.27
2019-03-11T12:25:35.180Z,4.63
2019-03-11T12:28:04.786Z,4.17
2019-03-11T12:30:32.875Z,4.35
2019-03-11T12:33:00.794Z,4.12
2019-03-11T12:35:28.818Z,4.60
2019-03-11T12:37:56.993Z,4.57
2019-03-11T12:40:25.471Z,4.47
2019-03-11T12:42:53.590Z,4.80
2019-03-11T12:45:21.951Z,4.70
2019-03-11T12:47:50.288Z,4.87
2019-03-11T12:50:19.064Z,4.30
2019-03-11T12:52:47.010Z,4.12
2019-03-11T12:55:15.380Z,4.20
2019-03-11T12:57:43.298Z,3.80
2019-03-11T13:00:13.618Z,3.77
2019-03-11T13:02:41.566Z,4.35
2019-03-11T13:05:10.095Z,3.75
2019-03-11T13:07:38.800Z,4.00
2019-03-11T13:10:08.131Z,4.03
2019-03-11T13:12:36.096Z,4.40
2019-03-11T13:15:47.401Z,3.70
2019-03-11T13:18:34.032Z,3.50
2019-03-11T13:21:23.238Z,4.08
2019-03-11T13:23:51.059Z,3.67
2019-03-11T13:26:19.051Z,3.65
2019-03-11T13:28:46.987Z,3.58
2019-03-11T13:31:14.917Z,3.90
2019-03-11T13:33:42.944Z,3.55
2019-03-11T13:36:10.842Z,4.00
2019-03-11T13:38:38.747Z,3.83
2019-03-11T13:41:06.755Z,3.42
2019-03-11T13:43:35.021Z,3.25
2019-03-11T13:46:03.032Z,3.30
2019-03-11T13:48:31.151Z,4.13
2019-03-11T13:50:59.158Z,4.17
2019-03-11T13:53:27.492Z,4.08
2019-03-11T13:55:55.438Z,3.72
2019-03-11T13:58:23.486Z,3.58
2019-03-11T14:00:56.648Z,4.58
2019-03-11T14:03:21.691Z,4.10
2019-03-11T14:05:49.906Z,3.75
2019-03-11T14:08:18.024Z,3.98
2019-03-11T14:10:45.933Z,3.15
2019-03-11T14:13:13.900Z,2.98
2019-03-11T14:16:11.608Z,2.30
2019-03-11T14:18:38.813Z,1.80
2019-03-11T14:21:06.990Z,1.80
2019-03-11T14:23:35.022Z,1.67
2019-03-11T14:26:03.130Z,1.70
2019-03-11T14:28:31.118Z,1.50
2019-03-11T14:30:59.090Z,5.60
2019-03-11T14:33:27.035Z,3.20
2019-03-11T14:35:55.334Z,2.50
2019-03-11T14:38:23.403Z,1.70
2019-03-11T14:40:51.638Z,1.30
2019-03-11T14:43:19.621Z,1.47
2019-03-11T14:45:47.720Z,1.37
2019-03-11T14:48:15.826Z,1.30
2019-03-11T14:50:43.766Z,1.23
2019-03-11T14:53:12.138Z,1.30
2019-03-11T14:55:40.120Z,1.10
2019-03-11T14:58:08.022Z,1.20
2019-03-11T15:00:35.966Z,1.30
2019-03-11T15:03:05.366Z,1.30
2019-03-11T15:05:33.319Z,1.90
2019-03-11T15:08:01.187Z,1.20
2019-03-11T15:10:29.586Z,1.33
2019-03-11T15:12:57.850Z,1.40
2019-03-11T15:15:52.593Z,2.63
2019-03-11T15:18:20.757Z,2.00
2019-03-11T15:20:48.684Z,1.30
2019-03-11T15:23:20.709Z,1.43
2019-03-11T15:25:46.323Z,5.07
2019-03-11T15:28:14.908Z,1.30
2019-03-11T15:30:42.956Z,1.40
2019-03-11T15:33:10.959Z,1.43
2019-03-11T15:35:38.920Z,1.70
2019-03-11T15:38:06.878Z,1.37
2019-03-11T15:40:35.022Z,1.63
2019-03-11T15:43:04.182Z,4.07
2019-03-11T15:45:38.454Z,4.60
2019-03-11T15:48:01.855Z,1.90
2019-03-11T15:50:29.983Z,4.73
2019-03-11T15:52:57.939Z,4.03
2019-03-11T15:55:26.035Z,5.17
2019-03-11T15:57:53.976Z,2.90
2019-03-11T16:00:22.329Z,7.10
2019-03-11T16:02:50.192Z,8.67
2019-03-11T16:05:18.929Z,4.60
2019-03-11T16:07:47.716Z,7.07
2019-03-11T16:10:17.305Z,2.17
2019-03-11T16:12:45.580Z,1.40
2019-03-11T16:15:58.276Z,2.20
2019-03-11T16:18:24.513Z,1.30
2019-03-11T16:20:52.539Z,1.63
2019-03-11T16:23:20.445Z,2.27
2019-03-11T16:25:48.365Z,1.70
2019-03-11T16:28:16.335Z,1.20
2019-03-11T16:30:44.399Z,1.70
2019-03-11T16:33:12.312Z,0.87
2019-03-11T16:35:40.697Z,1.00
2019-03-11T16:38:08.761Z,1.20
2019-03-11T16:40:36.627Z,1.00
2019-03-11T16:43:05.695Z,1.30
2019-03-11T16:45:33.824Z,5.77
2019-03-11T16:48:01.854Z,3.67
2019-03-11T16:50:29.879Z,1.17
2019-03-11T16:52:57.854Z,1.10
2019-03-11T16:55:28.409Z,1.90
2019-03-11T16:57:56.305Z,1.80
2019-03-11T17:00:28.347Z,1.77
2019-03-11T17:02:56.275Z,1.40
2019-03-11T17:05:24.268Z,1.80
2019-03-11T17:07:52.470Z,1.70
2019-03-11T17:10:21.160Z,2.67
2019-03-11T17:12:49.522Z,1.00
2019-03-11T17:15:52.900Z,2.00
2019-03-11T17:18:20.231Z,0.97
2019-03-11T17:20:49.080Z,1.50
2019-03-11T17:23:17.634Z,1.70
2019-03-11T17:25:46.410Z,6.27
2019-03-11T17:28:15.023Z,2.60
2019-03-11T17:30:44.345Z,5.93
2019-03-11T17:33:13.155Z,3.60
2019-03-11T17:35:41.739Z,3.50
2019-03-11T17:38:10.697Z,2.10
2019-03-11T17:40:39.733Z,2.13
2019-03-11T17:43:08.561Z,2.00
2019-03-11T17:45:37.502Z,1.90
2019-03-11T17:48:06.563Z,2.70
2019-03-11T17:50:35.354Z,3.50
2019-03-11T17:53:05.830Z,2.60
2019-03-11T17:55:34.258Z,1.80
2019-03-11T17:58:04.075Z,1.70
2019-03-11T18:00:33.459Z,13.93
2019-03-11T18:03:01.854Z,11.80
2019-03-11T18:05:30.714Z,13.57
2019-03-11T18:08:00.282Z,5.90
2019-03-11T18:10:29.434Z,4.43
2019-03-11T18:12:58.178Z,2.13
2019-03-11T18:16:02.494Z,3.23
2019-03-11T18:18:33.352Z,2.30
2019-03-11T18:21:00.598Z,4.40
2019-03-11T18:23:29.387Z,3.03
2019-03-11T18:25:58.078Z,1.90
2019-03-11T18:28:26.866Z,1.20
2019-03-11T18:30:55.725Z,1.43
2019-03-11T18:33:24.486Z,1.50
2019-03-11T18:35:53.123Z,1.43
2019-03-11T18:38:21.856Z,1.37
2019-03-11T18:40:50.709Z,1.90
2019-03-11T18:43:20.920Z,2.23
2019-03-11T18:45:49.964Z,3.00
2019-03-11T18:48:18.699Z,1.70
2019-03-11T18:50:47.486Z,1.20
2019-03-11T18:53:16.201Z,1.70
2019-03-11T18:55:46.049Z,1.07
2019-03-11T18:58:14.682Z,3.63
2019-03-11T19:00:43.139Z,1.00
2019-03-11T19:03:11.455Z,1.00
2019-03-11T19:05:39.887Z,1.70
2019-03-11T19:08:07.931Z,2.23
2019-03-11T19:10:36.310Z,8.03
2019-03-11T19:13:06.139Z,2.53
2019-03-11T19:16:12.745Z,1.70
2019-03-11T19:18:39.376Z,2.20
2019-03-11T19:21:07.299Z,2.10
2019-03-11T19:23:39.195Z,2.17
2019-03-11T19:26:07.665Z,3.60
2019-03-11T19:28:35.524Z,1.90
2019-03-11T19:31:03.879Z,2.00
2019-03-11T19:33:32.431Z,3.80
2019-03-11T19:36:00.958Z,2.53
2019-03-11T19:38:29.021Z,3.90
2019-03-11T19:40:57.032Z,2.20
2019-03-11T19:43:24.986Z,3.63
2019-03-11T19:45:53.094Z,1.67
2019-03-11T19:48:21.151Z,1.20
2019-03-11T19:50:49.334Z,1.67
2019-03-11T19:53:17.602Z,1.67
2019-03-11T19:55:47.676Z,1.30
2019-03-11T19:58:15.929Z,2.10
2019-03-11T20:00:43.962Z,1.80
2019-03-11T20:03:23.628Z,21.73
2019-03-11T20:05:42.319Z,2.60
2019-03-11T20:08:10.790Z,1.30
2019-03-11T20:10:39.024Z,1.30
2019-03-11T20:13:07.478Z,1.53
2019-03-11T20:15:53.835Z,1.67
2019-03-11T20:18:20.778Z,1.07
2019-03-11T20:20:50.650Z,1.10
2019-03-11T20:23:19.352Z,1.17
2019-03-11T20:25:47.453Z,1.20
2019-03-11T20:28:16.776Z,1.70
2019-03-11T20:30:45.642Z,1.10
2019-03-11T20:33:13.810Z,1.40
2019-03-11T20:35:41.730Z,1.30
2019-03-11T20:38:10.042Z,1.10
2019-03-11T20:40:38.031Z,0.80
2019-03-11T20:43:06.729Z,0.90
2019-03-11T20:45:34.677Z,0.70
2019-03-11T20:48:04.167Z,0.73
2019-03-11T20:50:41.531Z,0.80
2019-03-11T20:53:05.595Z,1.00
2019-03-11T20:55:34.227Z,0.80
2019-03-11T20:58:02.364Z,0.90
2019-03-11T21:00:30.270Z,0.80
2019-03-11T21:03:00.009Z,0.90
2019-03-11T21:05:28.605Z,1.00
2019-03-11T21:07:57.180Z,1.10
2019-03-11T21:10:25.185Z,1.10
2019-03-11T21:12:53.203Z,0.90
2019-03-11T21:15:55.732Z,1.20
2019-03-11T21:18:22.543Z,0.60
2019-03-11T21:20:55.147Z,0.90
2019-03-11T21:23:20.212Z,0.80
2019-03-11T21:26:19.356Z,0.80
2019-03-11T21:28:46.580Z,0.87
2019-03-11T21:31:14.483Z,0.73
2019-03-11T21:33:42.406Z,0.60
2019-03-11T21:36:10.362Z,0.80
2019-03-11T21:38:38.353Z,0.77
2019-03-11T21:41:06.189Z,0.80
2019-03-11T21:43:34.053Z,1.20
2019-03-11T21:46:02.147Z,0.80
2019-03-11T21:48:30.043Z,1.10
2019-03-11T21:50:57.994Z,1.20
2019-03-11T21:53:25.924Z,1.00
2019-03-11T21:55:53.909Z,0.90
2019-03-11T21:58:21.854Z,0.83
2019-03-11T22:00:49.811Z,1.00
2019-03-11T22:03:17.960Z,1.33
2019-03-11T22:05:45.960Z,1.20
2019-03-11T22:08:13.810Z,0.73
2019-03-11T22:10:41.940Z,1.07
2019-03-11T22:13:09.916Z,1.00
2019-03-11T22:16:18.943Z,0.90
2019-03-11T22:18:45.267Z,0.73
2019-03-11T22:21:13.197Z,0.73
2019-03-11T22:23:42.235Z,0.57
2019-03-11T22:26:10.287Z,1.23
2019-03-11T22:28:38.114Z,0.90
2019-03-11T22:31:06.004Z,0.80
2019-03-11T22:33:35.042Z,1.50
2019-03-11T22:36:03.081Z,0.63
2019-03-11T22:38:30.922Z,0.70
2019-03-11T22:40:58.763Z,0.77
2019-03-11T22:43:26.626Z,1.00
2019-03-11T22:45:54.487Z,1.40
2019-03-11T22:48:22.523Z,1.27
2019-03-11T22:50:50.384Z,1.63
2019-03-11T22:53:18.324Z,0.83
2019-03-11T22:55:46.292Z,0.70
2019-03-11T22:58:14.191Z,0.80
2019-03-11T23:01:04.630Z,1.00
2019-03-11T23:03:32.634Z,0.73
2019-03-11T23:06:00.577Z,0.90
2019-03-11T23:08:28.603Z,0.60
2019-03-11T23:10:56.713Z,0.50
2019-03-11T23:13:24.687Z,0.70
2019-03-11T23:15:52.639Z,1.00
2019-03-11T23:18:20.491Z,0.80
2019-03-11T23:20:48.799Z,0.63
2019-03-11T23:23:16.663Z,0.80
2019-03-11T23:25:44.603Z,0.60
2019-03-11T23:28:12.550Z,0.60
2019-03-11T23:30:40.544Z,0.70
2019-03-11T23:33:08.987Z,0.70
2019-03-11T23:35:36.959Z,0.70
2019-03-11T23:38:06.241Z,0.80
2019-03-11T23:40:34.148Z,0.67
2019-03-11T23:43:01.999Z,0.50
2019-03-11T23:45:29.881Z,0.50
2019-03-11T23:47:57.945Z,0.70
2019-03-11T23:50:25.879Z,0.70
2019-03-11T23:52:53.729Z,0.60
2019-03-11T23:55:21.707Z,0.63
2019-03-11T23:57:49.592Z,0.70
